Chelsea, South Dakota
Current Conditions -  °F | °C
As of 12:08 PM on Monday 22 Dec 2014 (Local Time) from KABR Reporting Station
Haze Haze  
Wind Chill: 34°   Ceiling: 400
Heat Index: 34°   Visibility: 4mi
Dew Point: 33°   Wind: 3mph
Humidity: 96%   Direction: 50°NE
Pressure: 29.41"   Gusts: NA
Location:  45.1541°N, 98.6786°W
Report Text: KABR 221808Z AUTO 05003KT 4SM BR BKN004 OVC029 01/01 A2941 RMK AO2 T00110006
Loading
Personal Weather Stations






























Interactive Weather Map New forecast layout! Learn more

10-Day Weather Forecast

Advertisements
Track Severe Weather on mobile